Kathryn T. Devall — WDH2416 — position and weather

sailwx.info

Track history (hours):
 
Tides and Currents Weather Stations Pressure Air Temp Water Temp Dewpoint Dewpoint Depression Visibility Wind Speed Wind Dir Waves Ship Positions

Kathryn T. Devall

Owner: Kathryn T. Devall, Sulphur, LA. More information available from US FCC via Universal Licensing System and Coast Guard Vessel Documentation Center.

Last reported at 2017-Dec-11 13:57 UTC. Time now 2017-Dec-16 09:17 UTC.
Position N 29°24' W 094°45'.

Length 23 m.

Type: Towing. MMSI: 367597350.

Date/timePositionNaut miles runAvg speedWind from/ knotsBaromVisibWave heightAir tempDewpointWater temp
2017-Dec-11 13:57N 29°24' W 094°45'0 0.0
2017-Dec-11 13:30N 29°24' W 094°45'0 0.0
2017-Dec-11 13:00N 29°24' W 094°45'8 2.5
2017-Dec-11 09:36N 29°30' W 094°52'1 6.8
2017-Dec-11 09:30N 29°30' W 094°53'3 6.0
2017-Dec-11 09:00N 29°33' W 094°54'3 5.7
2017-Dec-11 08:30N 29°35' W 094°56'3 5.2
2017-Dec-11 08:00N 29°37' W 094°58'2 5.0
2017-Dec-11 07:30N 29°37' W 095°01'0 0.5
2017-Dec-11 07:00N 29°36' W 095°01'0 0.0
2017-Dec-11 06:30N 29°36' W 095°01'0 0.0
2017-Dec-11 06:00N 29°36' W 095°01'0 0.0
2017-Dec-11 05:30N 29°36' W 095°01'0 0.0
2017-Dec-11 05:00N 29°36' W 095°01'0 0.0
2017-Dec-11 04:30N 29°36' W 095°01'0 0.0
2017-Dec-11 04:00N 29°36' W 095°01'0 0.0
2017-Dec-11 03:30N 29°36' W 095°01'0 0.0
2017-Dec-11 03:00N 29°36' W 095°01'0 0.0
2017-Dec-11 02:30N 29°37' W 095°01'0 0.0
2017-Dec-11 02:00N 29°36' W 095°01'0 0.0
2017-Dec-11 01:30N 29°36' W 095°01'0 0.0
2017-Dec-11 01:00N 29°36' W 095°01'0 0.0
2017-Dec-11 00:30N 29°37' W 095°01'0 0.0
2017-Dec-11 00:00N 29°36' W 095°01'0 0.0
2017-Dec-10 23:30N 29°36' W 095°01'0 0.0
2017-Dec-10 23:00N 29°36' W 095°01'0 0.0
2017-Dec-10 22:30N 29°36' W 095°01'0 0.0
2017-Dec-10 22:00N 29°36' W 095°01'0 0.0
2017-Dec-10 21:30N 29°36' W 095°01'0 0.0
2017-Dec-10 21:00N 29°36' W 095°01'0 0.1
2017-Dec-10 20:30N 29°37' W 095°01'0 0.1
2017-Dec-10 20:00N 29°36' W 095°01'0 0.0
2017-Dec-10 19:30N 29°36' W 095°01'0 0.0
2017-Dec-10 19:00N 29°36' W 095°01'0 0.0
2017-Dec-10 18:30N 29°36' W 095°01'0 0.0
2017-Dec-09 21:15N 29°36' W 095°01'0 0.0
2017-Dec-09 21:00N 29°36' W 095°01'0 0.0
2017-Dec-09 20:30N 29°36' W 095°01'0 0.0
2017-Dec-09 20:00N 29°36' W 095°01'0 0.0
2017-Dec-09 19:30N 29°37' W 095°01'0 0.0
2017-Dec-09 19:00N 29°36' W 095°01'0 0.0
2017-Dec-09 18:30N 29°36' W 095°01'0 0.0
2017-Dec-09 18:00N 29°36' W 095°01'0 0.0
2017-Dec-09 17:30N 29°36' W 095°01'0 0.0
2017-Dec-09 17:00N 29°36' W 095°01'0 0.0
2017-Dec-09 16:30N 29°36' W 095°01'0 0.0
2017-Dec-09 16:00N 29°36' W 095°01'0 0.0
2017-Dec-09 15:30N 29°36' W 095°01'0 0.0
2017-Dec-09 15:00N 29°36' W 095°01'0 0.0
2017-Dec-09 14:30N 29°36' W 095°01'0 0.0
2017-Dec-09 14:00N 29°36' W 095°01'0 0.0
2017-Dec-09 13:30N 29°36' W 095°01'0 0.0
2017-Dec-09 13:00N 29°36' W 095°01'0 0.0
2017-Dec-09 12:30N 29°36' W 095°01'0 0.4
2017-Dec-09 12:00N 29°37' W 095°01'0 0.2
2017-Dec-09 11:30N 29°37' W 095°01'0 0.6
2017-Dec-09 11:00N 29°37' W 095°01'2 4.3
2017-Dec-09 10:30N 29°37' W 094°58'2 4.0
2017-Dec-09 10:00N 29°36' W 094°57'3 5.4
2017-Dec-09 09:30N 29°33' W 094°55'3 5.7
2017-Dec-09 09:00N 29°31' W 094°53'  
2017-Dec-04 10:30N 30°05' W 093°20'0 0.0
2017-Dec-04 10:00N 30°05' W 093°20'0 0.0
2017-Dec-04 09:30N 30°05' W 093°20'0 0.0
2017-Dec-04 09:00N 30°05' W 093°20'0 0.0
2017-Dec-04 08:30N 30°05' W 093°20'0 0.0
2017-Dec-04 08:00N 30°05' W 093°20'0 0.0
2017-Dec-04 07:30N 30°05' W 093°20'0 0.0
2017-Dec-04 07:00N 30°05' W 093°20'0 0.0
2017-Dec-04 06:30N 30°05' W 093°20'0 0.0
2017-Dec-04 06:00N 30°05' W 093°20'0 0.0
2017-Dec-04 05:30N 30°05' W 093°20'0 0.0
2017-Dec-04 05:00N 30°05' W 093°20'0 0.0
2017-Dec-04 04:30N 30°05' W 093°20'0 0.0
2017-Dec-04 04:00N 30°05' W 093°20'0 0.0
2017-Dec-04 03:30N 30°05' W 093°20'0 0.0
2017-Dec-04 03:00N 30°05' W 093°20'0 0.0
2017-Dec-04 02:30N 30°05' W 093°20'0 0.0
2017-Dec-04 02:00N 30°05' W 093°20'0 0.0
2017-Dec-04 01:30N 30°05' W 093°20'0 0.0
2017-Dec-04 01:00N 30°05' W 093°20'2 4.3
2017-Dec-04 00:30N 30°04' W 093°22'0 0.0
2017-Dec-03 23:59N 30°04' W 093°22'0 0.0
2017-Dec-03 23:27N 30°04' W 093°22'0 0.0
2017-Dec-03 22:56N 30°04' W 093°22'0 0.0
2017-Dec-03 22:30N 30°04' W 093°22'0 0.0
2017-Dec-03 22:00N 30°04' W 093°22'0 0.0
2017-Dec-03 21:30N 30°04' W 093°22'0 0.0
2017-Dec-03 21:00N 30°04' W 093°22'0 0.0
2017-Dec-03 20:30N 30°04' W 093°22'0 0.0
2017-Dec-03 20:00N 30°04' W 093°22'0 0.5
2017-Dec-03 19:30N 30°04' W 093°21'2 3.7
2017-Dec-03 19:00N 30°05' W 093°20'4 7.5
2017-Dec-03 18:30N 30°09' W 093°20'4 8.6
2017-Dec-03 18:00N 30°12' W 093°17'2 3.5
2017-Dec-03 17:30N 30°13' W 093°15'3 5.5
2017-Dec-03 17:00N 30°12' W 093°18'2 3.5
2017-Dec-03 16:30N 30°10' W 093°19'1 1.6
2017-Dec-03 16:00N 30°10' W 093°19'2 5.0
2017-Dec-03 15:30N 30°07' W 093°20'3 5.4
2017-Dec-03 15:00N 30°04' W 093°20'1 2.5
2017-Dec-03 14:26N 30°04' W 093°22'0 0.0
2017-Dec-03 13:58N 30°04' W 093°22'0 0.5
2017-Dec-03 13:16N 30°04' W 093°21'0 0.6
2017-Dec-03 12:58N 30°04' W 093°21'0 0.0
2017-Dec-03 12:29N 30°04' W 093°21'0 0.0
2017-Dec-03 12:00N 30°04' W 093°21'0 0.0
2017-Dec-03 11:30N 30°04' W 093°21'0 0.0
2017-Dec-03 10:54N 30°04' W 093°21'0 0.0
2017-Dec-03 10:30N 30°04' W 093°21'0 0.0
2017-Dec-03 10:00N 30°04' W 093°21'0 0.0
2017-Dec-03 09:30N 30°04' W 093°21'0 0.0
2017-Dec-03 08:57N 30°04' W 093°21'0 0.0
2017-Dec-03 08:30N 30°04' W 093°21'0 0.0
2017-Dec-03 08:00N 30°04' W 093°21'0 0.0
2017-Dec-03 07:30N 30°04' W 093°21'0 0.0
2017-Dec-03 06:51N 30°04' W 093°21'0 0.0
2017-Dec-03 06:30N 30°04' W 093°21'0 0.0
2017-Dec-03 05:56N 30°04' W 093°21'0 0.0
2017-Dec-03 05:30N 30°04' W 093°21'0 0.0
2017-Dec-03 04:55N 30°04' W 093°21'0 0.0
2017-Dec-03 04:30N 30°04' W 093°21'0 0.0
2017-Dec-03 03:55N 30°04' W 093°21'0 0.0
2017-Dec-03 03:30N 30°04' W 093°21'0 0.0
2017-Dec-03 02:55N 30°04' W 093°21'0 0.0
2017-Dec-03 02:26N 30°04' W 093°21'0 0.0
2017-Dec-03 02:00N 30°04' W 093°21'0 0.0
2017-Dec-03 01:30N 30°04' W 093°21'0 0.0
2017-Dec-03 01:00N 30°04' W 093°21'0 0.0
2017-Dec-03 00:30N 30°04' W 093°21'0 0.0
2017-Dec-03 00:00N 30°04' W 093°21'0 0.0
2017-Dec-02 23:30N 30°04' W 093°21'0 0.0
2017-Dec-02 23:00N 30°04' W 093°21'0 0.0
2017-Dec-02 22:30N 30°04' W 093°21'0 0.0
2017-Dec-02 22:00N 30°04' W 093°21'0 0.0
2017-Dec-02 21:30N 30°04' W 093°21'0 0.0
2017-Dec-02 21:00N 30°04' W 093°21'0 0.0
2017-Dec-02 20:30N 30°04' W 093°21'0 0.0
2017-Dec-02 20:00N 30°04' W 093°21'0 0.0
2017-Dec-02 19:30N 30°04' W 093°21'0 0.0
2017-Dec-02 19:00N 30°04' W 093°21'0 0.0
2017-Dec-02 18:30N 30°04' W 093°21'1 2.2
2017-Dec-02 18:00N 30°04' W 093°20'0 0.0
2017-Dec-02 17:30N 30°05' W 093°20'1 2.6
2017-Dec-02 17:00N 30°06' W 093°20'3 5.9
2017-Dec-02 16:29N 30°09' W 093°20'3 5.8
2017-Dec-02 16:00N 30°11' W 093°18'3 5.8
2017-Dec-02 15:29N 30°13' W 093°16'0 0.8
2017-Dec-02 14:58N 30°13' W 093°15'0 0.3
2017-Dec-02 14:30N 30°13' W 093°15'0 0.2
2017-Dec-02 14:00N 30°13' W 093°15'0 0.0
2017-Dec-02 13:30N 30°13' W 093°15'1 1.1
2017-Dec-02 13:00N 30°13' W 093°16'4 7.1
2017-Dec-02 12:30N 30°11' W 093°19'3 6.8
2017-Dec-02 12:00N 30°07' W 093°20'2 4.9
2017-Dec-02 11:30N 30°05' W 093°20'1 2.0
2017-Dec-02 11:00N 30°04' W 093°21'1 1.5
2017-Dec-02 10:30N 30°04' W 093°21'0 0.0
2017-Dec-02 10:00N 30°04' W 093°21'0 0.0
2017-Dec-02 09:30N 30°04' W 093°21'0 0.0
2017-Dec-02 09:00N 30°04' W 093°21'0 0.0
2017-Dec-02 08:31N 30°04' W 093°21'0 0.0
2017-Dec-02 08:00N 30°04' W 093°21'0 0.0
2017-Dec-02 07:31N 30°04' W 093°21'0 0.0
2017-Dec-02 07:01N 30°04' W 093°21'0 0.0
2017-Dec-02 06:31N 30°04' W 093°21'0 0.0
2017-Dec-02 06:01N 30°04' W 093°21'0 0.0
2017-Dec-02 05:31N 30°04' W 093°21'0 0.0
2017-Dec-02 05:01N 30°04' W 093°21'0 0.0
2017-Dec-02 04:31N 30°04' W 093°21'0 0.0
2017-Dec-02 04:01N 30°04' W 093°21'0 0.0
2017-Dec-02 03:30N 30°04' W 093°21'0 0.0
2017-Dec-02 03:01N 30°04' W 093°21'0 0.0
2017-Dec-02 02:31N 30°04' W 093°21'0 0.0
2017-Dec-02 02:01N 30°04' W 093°21'0 0.0
2017-Dec-02 01:31N 30°04' W 093°21'0 0.0
2017-Dec-02 01:01N 30°04' W 093°21'0 0.0
2017-Dec-02 00:31N 30°04' W 093°21'0 0.0
2017-Dec-02 00:01N 30°04' W 093°21'0 0.6
2017-Dec-01 23:31N 30°04' W 093°22'2 4.6
2017-Dec-01 23:01N 30°05' W 093°20'3 6.0
2017-Dec-01 22:30N 30°08' W 093°20'1 1.3
2017-Dec-01 22:01N 30°09' W 093°20'1 1.3
2017-Dec-01 21:31N 30°08' W 093°20'4 7.0
2017-Dec-01 21:01N 30°05' W 093°20'2 3.3
2017-Dec-01 20:31N 30°04' W 093°22'0 0.4
2017-Dec-01 20:01N 30°04' W 093°22'0 0.0
2017-Dec-01 19:31N 30°04' W 093°22'0 0.0
2017-Dec-01 19:01N 30°04' W 093°22'0 0.0
2017-Dec-01 18:31N 30°04' W 093°22'0 0.5
2017-Dec-01 18:01N 30°04' W 093°21'2 3.7
2017-Dec-01 17:31N 30°05' W 093°20'0 0.0
2017-Dec-01 17:01N 30°05' W 093°20'0 0.0
2017-Dec-01 16:31N 30°05' W 093°20'0 0.0
2017-Dec-01 16:01N 30°05' W 093°20'0 0.4
2017-Dec-01 15:31N 30°05' W 093°20'2 3.1
2017-Dec-01 15:01N 30°04' W 093°21'0 0.1
2017-Dec-01 14:31N 30°04' W 093°21'0 0.2
2017-Dec-01 14:00N 30°04' W 093°21'  
Track history (hours):
 
Tides and Currents Weather Stations Pressure Air Temp Water Temp Dewpoint Dewpoint Depression Visibility Wind Speed Wind Dir Waves Ship Positions

Kathryn T. Devall

Owner: Kathryn T. Devall, Sulphur, LA. More information available from US FCC via Universal Licensing System and Coast Guard Vessel Documentation Center.

Last reported at 2017-Dec-11 13:57 UTC. Time now 2017-Dec-16 09:17 UTC.
Position N 29°24' W 094°45'.

Length 23 m.

Type: Towing. MMSI: 367597350.

Date/timePositionNaut miles runAvg speedWind from/ knotsBaromVisibWave heightAir tempDewpointWater temp
2017-Dec-11 13:57N 29°24' W 094°45'0 0.0
2017-Dec-11 13:30N 29°24' W 094°45'0 0.0
2017-Dec-11 13:00N 29°24' W 094°45'8 2.5
2017-Dec-11 09:36N 29°30' W 094°52'1 6.8
2017-Dec-11 09:30N 29°30' W 094°53'3 6.0
2017-Dec-11 09:00N 29°33' W 094°54'3 5.7
2017-Dec-11 08:30N 29°35' W 094°56'3 5.2
2017-Dec-11 08:00N 29°37' W 094°58'2 5.0
2017-Dec-11 07:30N 29°37' W 095°01'0 0.5
2017-Dec-11 07:00N 29°36' W 095°01'0 0.0
2017-Dec-11 06:30N 29°36' W 095°01'0 0.0
2017-Dec-11 06:00N 29°36' W 095°01'0 0.0
2017-Dec-11 05:30N 29°36' W 095°01'0 0.0
2017-Dec-11 05:00N 29°36' W 095°01'0 0.0
2017-Dec-11 04:30N 29°36' W 095°01'0 0.0
2017-Dec-11 04:00N 29°36' W 095°01'0 0.0
2017-Dec-11 03:30N 29°36' W 095°01'0 0.0
2017-Dec-11 03:00N 29°36' W 095°01'0 0.0
2017-Dec-11 02:30N 29°37' W 095°01'0 0.0
2017-Dec-11 02:00N 29°36' W 095°01'0 0.0
2017-Dec-11 01:30N 29°36' W 095°01'0 0.0
2017-Dec-11 01:00N 29°36' W 095°01'0 0.0
2017-Dec-11 00:30N 29°37' W 095°01'0 0.0
2017-Dec-11 00:00N 29°36' W 095°01'0 0.0
2017-Dec-10 23:30N 29°36' W 095°01'0 0.0
2017-Dec-10 23:00N 29°36' W 095°01'0 0.0
2017-Dec-10 22:30N 29°36' W 095°01'0 0.0
2017-Dec-10 22:00N 29°36' W 095°01'0 0.0
2017-Dec-10 21:30N 29°36' W 095°01'0 0.0
2017-Dec-10 21:00N 29°36' W 095°01'0 0.1
2017-Dec-10 20:30N 29°37' W 095°01'0 0.1
2017-Dec-10 20:00N 29°36' W 095°01'0 0.0
2017-Dec-10 19:30N 29°36' W 095°01'0 0.0
2017-Dec-10 19:00N 29°36' W 095°01'0 0.0
2017-Dec-10 18:30N 29°36' W 095°01'0 0.0
2017-Dec-09 21:15N 29°36' W 095°01'0 0.0
2017-Dec-09 21:00N 29°36' W 095°01'0 0.0
2017-Dec-09 20:30N 29°36' W 095°01'0 0.0
2017-Dec-09 20:00N 29°36' W 095°01'0 0.0
2017-Dec-09 19:30N 29°37' W 095°01'0 0.0
2017-Dec-09 19:00N 29°36' W 095°01'0 0.0
2017-Dec-09 18:30N 29°36' W 095°01'0 0.0
2017-Dec-09 18:00N 29°36' W 095°01'0 0.0
2017-Dec-09 17:30N 29°36' W 095°01'0 0.0
2017-Dec-09 17:00N 29°36' W 095°01'0 0.0
2017-Dec-09 16:30N 29°36' W 095°01'0 0.0
2017-Dec-09 16:00N 29°36' W 095°01'0 0.0
2017-Dec-09 15:30N 29°36' W 095°01'0 0.0
2017-Dec-09 15:00N 29°36' W 095°01'0 0.0
2017-Dec-09 14:30N 29°36' W 095°01'0 0.0
2017-Dec-09 14:00N 29°36' W 095°01'0 0.0
2017-Dec-09 13:30N 29°36' W 095°01'0 0.0
2017-Dec-09 13:00N 29°36' W 095°01'0 0.0
2017-Dec-09 12:30N 29°36' W 095°01'0 0.4
2017-Dec-09 12:00N 29°37' W 095°01'0 0.2
2017-Dec-09 11:30N 29°37' W 095°01'0 0.6
2017-Dec-09 11:00N 29°37' W 095°01'2 4.3
2017-Dec-09 10:30N 29°37' W 094°58'2 4.0
2017-Dec-09 10:00N 29°36' W 094°57'3 5.4
2017-Dec-09 09:30N 29°33' W 094°55'3 5.7
2017-Dec-09 09:00N 29°31' W 094°53'  
2017-Dec-04 10:30N 30°05' W 093°20'0 0.0
2017-Dec-04 10:00N 30°05' W 093°20'0 0.0
2017-Dec-04 09:30N 30°05' W 093°20'0 0.0
2017-Dec-04 09:00N 30°05' W 093°20'0 0.0
2017-Dec-04 08:30N 30°05' W 093°20'0 0.0
2017-Dec-04 08:00N 30°05' W 093°20'0 0.0
2017-Dec-04 07:30N 30°05' W 093°20'0 0.0
2017-Dec-04 07:00N 30°05' W 093°20'0 0.0
2017-Dec-04 06:30N 30°05' W 093°20'0 0.0
2017-Dec-04 06:00N 30°05' W 093°20'0 0.0
2017-Dec-04 05:30N 30°05' W 093°20'0 0.0
2017-Dec-04 05:00N 30°05' W 093°20'0 0.0
2017-Dec-04 04:30N 30°05' W 093°20'0 0.0
2017-Dec-04 04:00N 30°05' W 093°20'0 0.0
2017-Dec-04 03:30N 30°05' W 093°20'0 0.0
2017-Dec-04 03:00N 30°05' W 093°20'0 0.0
2017-Dec-04 02:30N 30°05' W 093°20'0 0.0
2017-Dec-04 02:00N 30°05' W 093°20'0 0.0
2017-Dec-04 01:30N 30°05' W 093°20'0 0.0
2017-Dec-04 01:00N 30°05' W 093°20'2 4.3
2017-Dec-04 00:30N 30°04' W 093°22'0 0.0
2017-Dec-03 23:59N 30°04' W 093°22'0 0.0
2017-Dec-03 23:27N 30°04' W 093°22'0 0.0
2017-Dec-03 22:56N 30°04' W 093°22'0 0.0
2017-Dec-03 22:30N 30°04' W 093°22'0 0.0
2017-Dec-03 22:00N 30°04' W 093°22'0 0.0
2017-Dec-03 21:30N 30°04' W 093°22'0 0.0
2017-Dec-03 21:00N 30°04' W 093°22'0 0.0
2017-Dec-03 20:30N 30°04' W 093°22'0 0.0
2017-Dec-03 20:00N 30°04' W 093°22'0 0.5
2017-Dec-03 19:30N 30°04' W 093°21'2 3.7
2017-Dec-03 19:00N 30°05' W 093°20'4 7.5
2017-Dec-03 18:30N 30°09' W 093°20'4 8.6
2017-Dec-03 18:00N 30°12' W 093°17'2 3.5
2017-Dec-03 17:30N 30°13' W 093°15'3 5.5
2017-Dec-03 17:00N 30°12' W 093°18'2 3.5
2017-Dec-03 16:30N 30°10' W 093°19'1 1.6
2017-Dec-03 16:00N 30°10' W 093°19'2 5.0
2017-Dec-03 15:30N 30°07' W 093°20'3 5.4
2017-Dec-03 15:00N 30°04' W 093°20'1 2.5
2017-Dec-03 14:26N 30°04' W 093°22'0 0.0
2017-Dec-03 13:58N 30°04' W 093°22'0 0.5
2017-Dec-03 13:16N 30°04' W 093°21'0 0.6
2017-Dec-03 12:58N 30°04' W 093°21'0 0.0
2017-Dec-03 12:29N 30°04' W 093°21'0 0.0
2017-Dec-03 12:00N 30°04' W 093°21'0 0.0
2017-Dec-03 11:30N 30°04' W 093°21'0 0.0
2017-Dec-03 10:54N 30°04' W 093°21'0 0.0
2017-Dec-03 10:30N 30°04' W 093°21'0 0.0
2017-Dec-03 10:00N 30°04' W 093°21'0 0.0
2017-Dec-03 09:30N 30°04' W 093°21'0 0.0
2017-Dec-03 08:57N 30°04' W 093°21'0 0.0
2017-Dec-03 08:30N 30°04' W 093°21'0 0.0
2017-Dec-03 08:00N 30°04' W 093°21'0 0.0
2017-Dec-03 07:30N 30°04' W 093°21'0 0.0
2017-Dec-03 06:51N 30°04' W 093°21'0 0.0
2017-Dec-03 06:30N 30°04' W 093°21'0 0.0
2017-Dec-03 05:56N 30°04' W 093°21'0 0.0
2017-Dec-03 05:30N 30°04' W 093°21'0 0.0
2017-Dec-03 04:55N 30°04' W 093°21'0 0.0
2017-Dec-03 04:30N 30°04' W 093°21'0 0.0
2017-Dec-03 03:55N 30°04' W 093°21'0 0.0
2017-Dec-03 03:30N 30°04' W 093°21'0 0.0
2017-Dec-03 02:55N 30°04' W 093°21'0 0.0
2017-Dec-03 02:26N 30°04' W 093°21'0 0.0
2017-Dec-03 02:00N 30°04' W 093°21'0 0.0
2017-Dec-03 01:30N 30°04' W 093°21'0 0.0
2017-Dec-03 01:00N 30°04' W 093°21'0 0.0
2017-Dec-03 00:30N 30°04' W 093°21'0 0.0
2017-Dec-03 00:00N 30°04' W 093°21'0 0.0
2017-Dec-02 23:30N 30°04' W 093°21'0 0.0
2017-Dec-02 23:00N 30°04' W 093°21'0 0.0
2017-Dec-02 22:30N 30°04' W 093°21'0 0.0
2017-Dec-02 22:00N 30°04' W 093°21'0 0.0
2017-Dec-02 21:30N 30°04' W 093°21'0 0.0
2017-Dec-02 21:00N 30°04' W 093°21'0 0.0
2017-Dec-02 20:30N 30°04' W 093°21'0 0.0
2017-Dec-02 20:00N 30°04' W 093°21'0 0.0
2017-Dec-02 19:30N 30°04' W 093°21'0 0.0
2017-Dec-02 19:00N 30°04' W 093°21'0 0.0
2017-Dec-02 18:30N 30°04' W 093°21'1 2.2
2017-Dec-02 18:00N 30°04' W 093°20'0 0.0
2017-Dec-02 17:30N 30°05' W 093°20'1 2.6
2017-Dec-02 17:00N 30°06' W 093°20'3 5.9
2017-Dec-02 16:29N 30°09' W 093°20'3 5.8
2017-Dec-02 16:00N 30°11' W 093°18'3 5.8
2017-Dec-02 15:29N 30°13' W 093°16'0 0.8
2017-Dec-02 14:58N 30°13' W 093°15'0 0.3
2017-Dec-02 14:30N 30°13' W 093°15'0 0.2
2017-Dec-02 14:00N 30°13' W 093°15'0 0.0
2017-Dec-02 13:30N 30°13' W 093°15'1 1.1
2017-Dec-02 13:00N 30°13' W 093°16'4 7.1
2017-Dec-02 12:30N 30°11' W 093°19'3 6.8
2017-Dec-02 12:00N 30°07' W 093°20'2 4.9
2017-Dec-02 11:30N 30°05' W 093°20'1 2.0
2017-Dec-02 11:00N 30°04' W 093°21'1 1.5
2017-Dec-02 10:30N 30°04' W 093°21'0 0.0
2017-Dec-02 10:00N 30°04' W 093°21'0 0.0
2017-Dec-02 09:30N 30°04' W 093°21'0 0.0
2017-Dec-02 09:00N 30°04' W 093°21'0 0.0
2017-Dec-02 08:31N 30°04' W 093°21'0 0.0
2017-Dec-02 08:00N 30°04' W 093°21'0 0.0
2017-Dec-02 07:31N 30°04' W 093°21'0 0.0
2017-Dec-02 07:01N 30°04' W 093°21'0 0.0
2017-Dec-02 06:31N 30°04' W 093°21'0 0.0
2017-Dec-02 06:01N 30°04' W 093°21'0 0.0
2017-Dec-02 05:31N 30°04' W 093°21'0 0.0
2017-Dec-02 05:01N 30°04' W 093°21'0 0.0
2017-Dec-02 04:31N 30°04' W 093°21'0 0.0
2017-Dec-02 04:01N 30°04' W 093°21'0 0.0
2017-Dec-02 03:30N 30°04' W 093°21'0 0.0
2017-Dec-02 03:01N 30°04' W 093°21'0 0.0
2017-Dec-02 02:31N 30°04' W 093°21'0 0.0
2017-Dec-02 02:01N 30°04' W 093°21'0 0.0
2017-Dec-02 01:31N 30°04' W 093°21'0 0.0
2017-Dec-02 01:01N 30°04' W 093°21'0 0.0
2017-Dec-02 00:31N 30°04' W 093°21'0 0.0
2017-Dec-02 00:01N 30°04' W 093°21'0 0.6
2017-Dec-01 23:31N 30°04' W 093°22'2 4.6
2017-Dec-01 23:01N 30°05' W 093°20'3 6.0
2017-Dec-01 22:30N 30°08' W 093°20'1 1.3
2017-Dec-01 22:01N 30°09' W 093°20'1 1.3
2017-Dec-01 21:31N 30°08' W 093°20'4 7.0
2017-Dec-01 21:01N 30°05' W 093°20'2 3.3
2017-Dec-01 20:31N 30°04' W 093°22'0 0.4
2017-Dec-01 20:01N 30°04' W 093°22'0 0.0
2017-Dec-01 19:31N 30°04' W 093°22'0 0.0
2017-Dec-01 19:01N 30°04' W 093°22'0 0.0
2017-Dec-01 18:31N 30°04' W 093°22'0 0.5
2017-Dec-01 18:01N 30°04' W 093°21'2 3.7
2017-Dec-01 17:31N 30°05' W 093°20'0 0.0
2017-Dec-01 17:01N 30°05' W 093°20'0 0.0
2017-Dec-01 16:31N 30°05' W 093°20'0 0.0
2017-Dec-01 16:01N 30°05' W 093°20'0 0.4
2017-Dec-01 15:31N 30°05' W 093°20'2 3.1
2017-Dec-01 15:01N 30°04' W 093°21'0 0.1
2017-Dec-01 14:31N 30°04' W 093°21'0 0.2
2017-Dec-01 14:00N 30°04' W 093°21'  

Dump ship's entire track history